KAUG

Augusta State Airport

Augusta, Maine, USA
KAUG 151120Z 1512/1612 28003KT 6SM BR OVC011 FM151400 27004KT P6SM BKN050
Issued Valid From Valid To
Aug-15 @ 11:20 UTC
(an hour ago)
Aug-15 @ 12:00 UTC
(40 minutes ago)
Aug-16 @ 12:00 UTC
(in 23 hours)
Aug-15 @ 12:00 to Aug-15 @ 14:00
KAUG 151120Z 1512/1612 28003KT 6SM BR OVC011
Wind Visibility Clouds Conditions
280° at 3 knots 6 miles
  • Overcast at 1,100' AGL
  • Mist
From Aug-15 @ 14:00 to Aug-16 @ 12:00
FM151400 27004KT P6SM BKN050
Wind Visibility Clouds
270° at 4 knots Greater than 6 miles
  • Broken at 5,000' AGL
KAUG 151120Z 1512/1612 28003KT 6SM BR OVC011 FM151400 27004KT P6SM BKN050
Issued Aug-15 @ 11:20 UTC
(an hour ago)
Valid From Aug-15 @ 12:00 UTC
(40 minutes ago)
Valid To Aug-16 @ 12:00 UTC
(in 23 hours)
Aug-15 @ 12:00 - Aug-15 @ 14:00
Wind Visibility
280° at 3 knots 6 miles
Clouds
  • Overcast at 1,100' AGL
Conditions
  • Mist
From Aug-15 @ 14:00 - Aug-16 @ 12:00
Wind Visibility
270° at 4 knots Greater than 6 miles
Clouds
  • Broken at 5,000' AGL